Terminal Aerodrome Forecast
Issued by NWS Cleveland, OH

Home | Current Version | Previous Version | Text Only | Print | Product List | Glossary Off
Versions: 1 2 3 4 5 6 7 8 9 10 11 12 13 14 15 16

000
FTUS41 KCLE 280535
TAFMFD
TAF
KMFD 280535Z 2806/2906 14005KT P6SM BKN070
     FM281500 17004KT P6SM SCT050 BKN200
     FM282000 33005KT P6SM VCSH BKN050
     FM290100 VRB03KT P6SM BKN200=

USA.gov is the U.S. government's official web portal to all federal, state and local government web resources and services.